createdAt,value
2023-04-21T00:00:28.653Z,100059.72
2023-04-21T00:02:58.751Z,100008.06
2023-04-21T00:05:29.467Z,100063.31
2023-04-21T00:07:58.688Z,100045.69
2023-04-21T00:10:27.710Z,100056.81
2023-04-21T00:12:57.063Z,100056.56
2023-04-21T00:15:26.348Z,100042.00
2023-04-21T00:17:55.300Z,100052.25
2023-04-21T00:20:26.953Z,100058.41
2023-04-21T00:22:58.658Z,100048.94
2023-04-21T00:25:28.025Z,100030.69
2023-04-21T00:27:57.078Z,100053.56
2023-04-21T00:30:26.229Z,100053.78
2023-04-21T00:32:56.175Z,100052.09
2023-04-21T00:35:26.140Z,100050.16
2023-04-21T00:37:58.409Z,100051.25
2023-04-21T00:40:27.595Z,100049.78
2023-04-21T00:43:02.216Z,100044.72
2023-04-21T00:45:31.273Z,100048.03
2023-04-21T00:48:03.766Z,99985.25
2023-04-21T00:50:34.292Z,100004.16
2023-04-21T00:53:08.143Z,100043.88
2023-04-21T00:55:40.455Z,100039.53
2023-04-21T00:58:11.087Z,100047.97
2023-04-21T01:00:40.603Z,100040.00
2023-04-21T01:03:09.815Z,99981.91
2023-04-21T01:05:39.037Z,100051.03
2023-04-21T01:08:09.405Z,100047.03
2023-04-21T01:10:38.546Z,100029.19
2023-04-21T01:13:08.285Z,100047.25
2023-04-21T01:15:37.174Z,100043.09
2023-04-21T01:18:07.585Z,100044.66
2023-04-21T01:20:36.795Z,100005.53
2023-04-21T01:23:11.722Z,99987.50
2023-04-21T01:25:42.688Z,100036.28
2023-04-21T01:28:11.812Z,100027.34
2023-04-21T01:30:45.517Z,100035.09
2023-04-21T01:33:15.094Z,100027.84
2023-04-21T01:35:44.118Z,100024.19
2023-04-21T01:38:19.557Z,100017.41
2023-04-21T01:40:50.885Z,100026.13
2023-04-21T01:43:22.151Z,100000.66
2023-04-21T01:45:51.897Z,100032.09
2023-04-21T01:48:21.108Z,100019.06
2023-04-21T01:50:50.061Z,99842.53
2023-04-21T01:53:20.692Z,100017.84
2023-04-21T01:55:49.895Z,100023.25
2023-04-21T01:58:19.134Z,100016.50
2023-04-21T02:00:48.250Z,100020.38
2023-04-21T02:03:17.669Z,100012.97
2023-04-21T02:05:48.292Z,100019.44
2023-04-21T02:08:18.516Z,100016.81
2023-04-21T02:10:49.497Z,100014.09
2023-04-21T02:13:18.698Z,100005.19
2023-04-21T02:15:50.371Z,99994.53
2023-04-21T02:18:22.266Z,99993.88
2023-04-21T02:20:56.072Z,99984.34
2023-04-21T02:23:25.298Z,99980.34
2023-04-21T02:25:56.766Z,99982.38
2023-04-21T02:28:25.705Z,99996.41
2023-04-21T02:30:54.650Z,99994.03
2023-04-21T02:33:26.944Z,99979.69
2023-04-21T02:35:55.923Z,99997.50
2023-04-21T02:38:30.366Z,99995.19
2023-04-21T02:41:00.778Z,99981.28
2023-04-21T02:43:29.890Z,99984.44
2023-04-21T02:45:58.998Z,99987.97
2023-04-21T02:48:28.496Z,99979.50
2023-04-21T02:51:01.766Z,99923.91
2023-04-21T02:53:30.985Z,99965.63
2023-04-21T02:56:06.052Z,99976.81
2023-04-21T02:58:35.205Z,99952.84
2023-04-21T03:01:05.523Z,99988.44
2023-04-21T03:03:37.409Z,99976.06
2023-04-21T03:06:07.585Z,99971.13
2023-04-21T03:08:36.713Z,99978.94
2023-04-21T03:11:07.273Z,99974.63
2023-04-21T03:13:36.369Z,99990.94
2023-04-21T03:16:06.719Z,99974.19
2023-04-21T03:18:36.682Z,99964.34
2023-04-21T03:21:07.241Z,99984.22
2023-04-21T03:23:36.506Z,99965.94
2023-04-21T03:26:09.676Z,99973.72
2023-04-21T03:28:39.049Z,99981.06
2023-04-21T03:31:08.199Z,99984.13
2023-04-21T03:33:37.576Z,99979.50
2023-04-21T03:36:10.408Z,99971.78
2023-04-21T03:38:40.472Z,99986.78
2023-04-21T03:41:10.880Z,99950.84
2023-04-21T03:43:40.129Z,99970.22
2023-04-21T03:46:09.422Z,99989.44
2023-04-21T03:48:38.473Z,99987.03
2023-04-21T03:51:10.642Z,99982.94
2023-04-21T03:53:40.008Z,99979.56
2023-04-21T03:56:10.893Z,99979.31
2023-04-21T03:58:40.103Z,99956.59
2023-04-21T04:01:09.250Z,99949.81
2023-04-21T04:03:43.397Z,99980.19
2023-04-21T04:06:12.579Z,99973.56
2023-04-21T04:08:41.843Z,99974.75
2023-04-21T04:11:12.446Z,99975.38
2023-04-21T04:13:44.365Z,99973.28
2023-04-21T04:16:15.217Z,99965.06
2023-04-21T04:18:45.772Z,99977.06
2023-04-21T04:21:19.311Z,99988.09
2023-04-21T04:23:48.445Z,99988.53
2023-04-21T04:26:21.567Z,99985.19
2023-04-21T04:28:50.751Z,99985.19
2023-04-21T04:31:20.363Z,99984.72
2023-04-21T04:33:49.468Z,99983.13
2023-04-21T04:36:21.613Z,99983.88
2023-04-21T04:38:53.129Z,99976.75
2023-04-21T04:41:26.035Z,99975.28
2023-04-21T04:43:55.162Z,99976.59
2023-04-21T04:46:25.033Z,99990.03
2023-04-21T04:48:54.564Z,99987.75
2023-04-21T04:51:23.794Z,99996.06
2023-04-21T04:53:53.199Z,99997.31
2023-04-21T04:56:23.650Z,99993.88
2023-04-21T04:58:52.661Z,99980.00
2023-04-21T05:01:34.309Z,99976.22
2023-04-21T05:04:04.068Z,99996.34
2023-04-21T05:06:34.922Z,100002.50
2023-04-21T05:09:07.066Z,100002.22
2023-04-21T05:11:37.336Z,99988.88
2023-04-21T05:14:06.460Z,99999.38
2023-04-21T05:16:37.849Z,100008.09
2023-04-21T05:19:08.879Z,100013.50
2023-04-21T05:21:38.950Z,100007.78
2023-04-21T05:24:08.279Z,99993.56
2023-04-21T05:26:38.900Z,100009.41
2023-04-21T05:29:08.112Z,99999.38
2023-04-21T05:31:39.187Z,100009.53
2023-04-21T05:34:08.716Z,100009.00
2023-04-21T05:36:37.858Z,100003.56
2023-04-21T05:39:07.144Z,99999.94
2023-04-21T05:41:36.266Z,99999.19
2023-04-21T05:44:09.296Z,99995.09
2023-04-21T05:46:41.506Z,99988.06
2023-04-21T05:49:10.558Z,99987.75
2023-04-21T05:51:40.204Z,99990.56
2023-04-21T05:54:10.090Z,99984.16
2023-04-21T05:56:39.795Z,99993.41
2023-04-21T05:59:11.938Z,99989.25
2023-04-21T06:01:43.202Z,99974.28
2023-04-21T06:04:12.651Z,99944.13
2023-04-21T06:06:41.931Z,99974.66
2023-04-21T06:09:15.770Z,99979.22
2023-04-21T06:11:44.903Z,99989.44
2023-04-21T06:14:15.513Z,99984.84
2023-04-21T06:16:44.653Z,99983.97
2023-04-21T06:19:16.868Z,99989.63
2023-04-21T06:21:45.987Z,99991.19
2023-04-21T06:24:15.594Z,99974.13
2023-04-21T06:26:51.394Z,99968.75
2023-04-21T06:29:23.993Z,99984.16
2023-04-21T06:31:53.608Z,99986.38
2023-04-21T06:34:25.582Z,99997.75
2023-04-21T06:36:57.621Z,99953.53
2023-04-21T06:39:27.482Z,99988.44
2023-04-21T06:41:58.243Z,99993.13
2023-04-21T06:44:32.474Z,99989.47
2023-04-21T06:47:01.850Z,99961.75
2023-04-21T06:49:31.135Z,99983.28
2023-04-21T06:52:02.075Z,99997.50
2023-04-21T06:54:31.434Z,99939.66
2023-04-21T06:57:00.765Z,99969.59
2023-04-21T06:59:35.212Z,99984.44
2023-04-21T07:02:04.419Z,99986.81
2023-04-21T07:04:36.447Z,99995.97
2023-04-21T07:07:05.553Z,99992.59
2023-04-21T07:09:35.625Z,99981.66
2023-04-21T07:12:04.940Z,99985.91
2023-04-21T07:14:37.400Z,99982.31
2023-04-21T07:17:09.079Z,99985.84
2023-04-21T07:19:40.795Z,99985.09
2023-04-21T07:22:10.980Z,99990.44
2023-04-21T07:24:40.055Z,99983.00
2023-04-21T07:27:09.263Z,99988.59
2023-04-21T07:29:45.970Z,99977.75
2023-04-21T07:32:24.716Z,99989.63
2023-04-21T07:34:53.954Z,99997.44
2023-04-21T07:37:24.938Z,99993.25
2023-04-21T07:39:54.515Z,99978.06
2023-04-21T07:42:27.682Z,99978.22
2023-04-21T07:45:02.618Z,99992.78
2023-04-21T07:47:34.472Z,99983.81
2023-04-21T07:50:03.646Z,99988.16
2023-04-21T07:52:32.877Z,99971.50
2023-04-21T07:55:02.171Z,99966.56
2023-04-21T07:57:34.542Z,99996.44
2023-04-21T08:00:06.219Z,99946.31
2023-04-21T08:02:41.421Z,99982.44
2023-04-21T08:05:11.320Z,99993.06
2023-04-21T08:07:41.155Z,99992.47
2023-04-21T08:10:11.487Z,99990.16
2023-04-21T08:12:40.369Z,99987.03
2023-04-21T08:15:12.642Z,99989.84
2023-04-21T08:21:53.269Z,99993.88
2023-04-21T08:24:22.993Z,99990.41
2023-04-21T08:26:52.486Z,100000.22
2023-04-21T08:29:21.594Z,99986.00
2023-04-21T08:31:52.140Z,99971.94
2023-04-21T08:34:23.627Z,99997.09
2023-04-21T08:36:54.123Z,100001.34
2023-04-21T08:39:25.594Z,99974.91
2023-04-21T08:41:54.979Z,100001.19
2023-04-21T08:44:24.003Z,99991.09
2023-04-21T08:47:07.373Z,100008.28
2023-04-21T08:49:38.285Z,100011.13
2023-04-21T08:52:09.256Z,100013.97
2023-04-21T08:54:39.136Z,100013.13
2023-04-21T08:57:15.204Z,100015.00
2023-04-21T08:59:45.748Z,99992.78
2023-04-21T09:02:18.029Z,100012.50
2023-04-21T09:04:52.395Z,99973.09
2023-04-21T09:07:33.583Z,100011.66
2023-04-21T09:10:06.002Z,99979.25
2023-04-21T09:12:35.039Z,100006.72
2023-04-21T09:15:06.430Z,100010.47
2023-04-21T09:17:40.628Z,100005.03
2023-04-21T09:20:21.934Z,100011.00
2023-04-21T09:22:52.671Z,100003.53
2023-04-21T09:25:24.871Z,100023.91
2023-04-21T09:27:58.353Z,99999.84
2023-04-21T09:30:27.834Z,99976.13
2023-04-21T09:32:59.906Z,100034.38
2023-04-21T09:35:30.188Z,100015.94
2023-04-21T09:37:59.571Z,100036.38
2023-04-21T09:40:30.363Z,100043.97
2023-04-21T09:42:59.650Z,100041.41
2023-04-21T09:45:40.321Z,100031.88
2023-04-21T09:48:14.057Z,100022.00
2023-04-21T09:53:34.828Z,100002.63
2023-04-21T09:56:05.431Z,100031.63
2023-04-21T09:58:40.527Z,100040.88
2023-04-21T10:01:10.986Z,100048.50
2023-04-21T10:03:43.160Z,100038.53
2023-04-21T10:06:13.605Z,100049.66
2023-04-21T10:08:43.287Z,100047.69
2023-04-21T10:11:13.827Z,100027.38
2023-04-21T10:13:43.802Z,100055.56
2023-04-21T10:16:13.174Z,100051.16
2023-04-21T10:18:46.797Z,99999.75
2023-04-21T10:21:21.316Z,100072.91
2023-04-21T10:23:52.616Z,100044.75
2023-04-21T10:26:23.630Z,100076.50
2023-04-21T10:28:57.792Z,100075.41
2023-04-21T10:31:35.398Z,100079.88
2023-04-21T10:34:30.844Z,100082.56
2023-04-21T10:37:19.826Z,100065.84
2023-04-21T10:39:57.191Z,100068.63
2023-04-21T10:42:28.945Z,100068.41
2023-04-21T10:45:19.191Z,100061.34
2023-04-21T10:47:51.580Z,100055.00
2023-04-21T10:50:25.553Z,100052.94
2023-04-21T10:52:57.756Z,100052.13
2023-04-21T10:55:31.396Z,100044.41
2023-04-21T10:58:05.300Z,100042.88
2023-04-21T11:00:35.093Z,100044.72
2023-04-21T11:03:11.083Z,100054.66
2023-04-21T11:05:42.896Z,100044.59
2023-04-21T11:08:14.509Z,100047.03
2023-04-21T11:10:49.121Z,100034.53
2023-04-21T11:13:18.657Z,100046.13
2023-04-21T11:16:02.320Z,100017.91
2023-04-21T11:18:35.252Z,100049.38
2023-04-21T11:21:18.460Z,100039.84
2023-04-21T11:23:52.094Z,100040.06
2023-04-21T11:26:31.940Z,100031.81
2023-04-21T11:29:06.140Z,100013.56
2023-04-21T11:31:35.774Z,100026.03
2023-04-21T11:34:06.926Z,100017.16
2023-04-21T11:36:38.555Z,99997.38
2023-04-21T11:39:10.146Z,100013.19
2023-04-21T11:41:41.836Z,99995.94
2023-04-21T11:44:11.560Z,100015.00
2023-04-21T11:46:47.919Z,100008.44
2023-04-21T11:49:18.508Z,99964.63
2023-04-21T11:51:51.889Z,99977.72
2023-04-21T11:54:22.116Z,99996.59
2023-04-21T11:57:09.259Z,100002.34
2023-04-21T11:59:38.517Z,100000.72
2023-04-21T12:02:15.058Z,99994.72
2023-04-21T12:04:59.061Z,99999.41
2023-04-21T12:07:33.473Z,99983.78
2023-04-21T12:10:14.680Z,99990.88
2023-04-21T12:12:44.999Z,99980.00
2023-04-21T12:15:20.402Z,99967.22
2023-04-21T12:17:51.017Z,99966.56
2023-04-21T12:20:21.691Z,99945.75
2023-04-21T12:22:52.546Z,99976.31
2023-04-21T12:25:21.568Z,99966.47
2023-04-21T12:27:51.389Z,99954.94
2023-04-21T12:30:25.780Z,99927.91
2023-04-21T12:32:57.618Z,99951.44
2023-04-21T12:35:30.850Z,99960.63
2023-04-21T12:38:01.215Z,99961.59
2023-04-21T12:40:32.175Z,99955.78
2023-04-21T12:43:01.277Z,99961.88
2023-04-21T12:45:32.973Z,99956.34
2023-04-21T12:48:03.668Z,99958.53
2023-04-21T12:50:32.718Z,99951.41
2023-04-21T12:53:04.418Z,99954.13
2023-04-21T12:55:36.126Z,99953.09
2023-04-21T12:58:05.221Z,99949.97
2023-04-21T13:00:36.489Z,99948.22
2023-04-21T13:03:08.715Z,99933.84
2023-04-21T13:05:37.855Z,99950.66
2023-04-21T13:08:08.225Z,99950.38
2023-04-21T13:10:37.856Z,99933.38
2023-04-21T13:13:07.112Z,99950.31
2023-04-21T13:15:38.181Z,99952.41
2023-04-21T13:18:07.317Z,99936.13
2023-04-21T13:20:36.490Z,99938.91
2023-04-21T13:23:05.665Z,99938.94
2023-04-21T13:25:36.307Z,99933.31
2023-04-21T13:28:05.513Z,99935.31
2023-04-21T13:30:34.617Z,99927.19
2023-04-21T13:33:03.971Z,99913.59
2023-04-21T13:35:33.270Z,99931.09
2023-04-21T13:38:12.602Z,99901.72
2023-04-21T13:40:48.827Z,99898.53
2023-04-21T13:43:17.741Z,99900.53
2023-04-21T13:45:48.261Z,99899.34
2023-04-21T13:48:17.604Z,99899.44
2023-04-21T13:50:58.672Z,99914.28
2023-04-21T13:54:48.153Z,99921.91
2023-04-21T13:57:30.188Z,99765.19
2023-04-21T13:59:59.956Z,99915.00
2023-04-21T14:02:29.342Z,99906.84
2023-04-21T14:05:01.559Z,99896.63
2023-04-21T14:07:35.878Z,99912.81
2023-04-21T14:10:06.488Z,99902.69
2023-04-21T14:12:39.629Z,99906.31
2023-04-21T14:15:09.705Z,99893.03
2023-04-21T14:17:38.861Z,99913.53
2023-04-21T14:20:10.768Z,99912.38
2023-04-21T14:22:39.916Z,99912.31
2023-04-21T14:25:11.562Z,99915.97
2023-04-21T14:27:43.365Z,99907.84
2023-04-21T14:30:13.738Z,99884.69
2023-04-21T14:32:45.335Z,99901.63
2023-04-21T14:35:15.133Z,99891.56
2023-04-21T14:37:44.064Z,99888.69
2023-04-21T14:40:13.643Z,99898.66
2023-04-21T14:42:46.824Z,99897.28
2023-04-21T14:45:17.791Z,99886.16
2023-04-21T14:47:47.308Z,99905.78
2023-04-21T14:50:16.337Z,99884.88
2023-04-21T14:52:50.963Z,99899.50
2023-04-21T14:55:23.866Z,99898.50
2023-04-21T14:57:54.396Z,99903.06
2023-04-21T15:00:24.296Z,99889.47
2023-04-21T15:02:53.860Z,99889.78
2023-04-21T15:05:22.994Z,99899.88
2023-04-21T15:07:52.720Z,99912.16
2023-04-21T15:10:21.904Z,99906.97
2023-04-21T15:12:51.205Z,99906.44
2023-04-21T15:15:23.615Z,99898.66
2023-04-21T15:17:52.963Z,99890.88
2023-04-21T15:20:32.557Z,99907.34
2023-04-21T15:23:10.342Z,99915.31
2023-04-21T15:25:43.370Z,99925.38
2023-04-21T15:28:13.383Z,99934.06
2023-04-21T15:30:43.981Z,99911.25
2023-04-21T15:33:12.997Z,99921.34
2023-04-21T15:35:41.983Z,99925.97
2023-04-21T15:38:35.857Z,99920.38
2023-04-21T15:41:06.191Z,99905.84
2023-04-21T15:43:36.937Z,99912.13
2023-04-21T15:46:13.467Z,99878.25
2023-04-21T15:48:42.799Z,99888.81
2023-04-21T15:51:11.980Z,99896.16
2023-04-21T15:53:47.374Z,99893.31
2023-04-21T15:56:17.138Z,99897.78
2023-04-21T15:58:46.637Z,99897.97
2023-04-21T16:01:17.650Z,99915.66
2023-04-21T16:03:47.749Z,99913.56
2023-04-21T16:06:17.068Z,99908.59
2023-04-21T16:08:46.069Z,99900.94
2023-04-21T16:11:15.193Z,99883.03
2023-04-21T16:13:44.307Z,99886.00
2023-04-21T16:16:13.652Z,99897.31
2023-04-21T16:18:44.273Z,99896.81
2023-04-21T16:21:13.260Z,99871.31
2023-04-21T16:23:43.141Z,99867.19
2023-04-21T16:26:12.211Z,99867.56
2023-04-21T16:28:41.607Z,99830.94
2023-04-21T16:31:10.622Z,99832.63
2023-04-21T16:33:42.287Z,99870.78
2023-04-21T16:36:12.839Z,99866.34
2023-04-21T16:38:43.394Z,99867.34
2023-04-21T16:41:17.186Z,99852.25
2023-04-21T16:43:47.434Z,99875.94
2023-04-21T16:46:17.020Z,99881.41
2023-04-21T16:48:46.462Z,99867.06
2023-04-21T16:51:17.518Z,99881.06
2023-04-21T16:53:46.498Z,99884.97
2023-04-21T16:56:15.664Z,99888.91
2023-04-21T16:58:45.022Z,99872.38
2023-04-21T17:01:14.414Z,99890.97
2023-04-21T17:03:43.690Z,99891.78
2023-04-21T17:06:17.330Z,99902.09
2023-04-21T17:08:47.634Z,99906.78
2023-04-21T17:11:16.623Z,99905.53
2023-04-21T17:13:48.404Z,99913.84
2023-04-21T17:16:21.225Z,99881.63
2023-04-21T17:18:50.796Z,99919.91
2023-04-21T17:21:19.953Z,99922.84
2023-04-21T17:23:51.344Z,99898.22
2023-04-21T17:26:21.128Z,99927.50
2023-04-21T17:28:50.314Z,99922.84
2023-04-21T17:31:19.380Z,99931.97
2023-04-21T17:33:48.696Z,99942.56
2023-04-21T17:36:18.025Z,99919.75
2023-04-21T17:38:47.610Z,99916.41
2023-04-21T17:41:28.273Z,99934.44
2023-04-21T17:44:01.054Z,99924.34
2023-04-21T17:46:30.851Z,99937.56
2023-04-21T17:49:00.039Z,99938.41
2023-04-21T17:51:29.027Z,99935.00
2023-04-21T17:54:00.418Z,99939.78
2023-04-21T17:56:31.193Z,99942.91
2023-04-21T17:59:00.518Z,99922.09
2023-04-21T18:01:30.069Z,99932.72
2023-04-21T18:04:01.314Z,99918.69
2023-04-21T18:06:32.012Z,99920.38
2023-04-21T18:09:01.339Z,99917.56
2023-04-21T18:11:31.880Z,99923.19
2023-04-21T18:14:03.703Z,99916.16
2023-04-21T18:16:32.661Z,99922.59
2023-04-21T18:19:01.784Z,99908.72
2023-04-21T18:21:40.875Z,99885.47
2023-04-21T18:24:10.050Z,99906.28
2023-04-21T18:26:41.507Z,99908.53
2023-04-21T18:29:10.530Z,99843.84
2023-04-21T18:31:40.194Z,99922.91
2023-04-21T18:34:09.251Z,99921.09
2023-04-21T18:36:38.895Z,99923.50
2023-04-21T18:39:08.033Z,99904.34
2023-04-21T18:41:37.191Z,99931.63
2023-04-21T18:44:07.753Z,99927.44
2023-04-21T18:46:37.349Z,99936.97
2023-04-21T18:49:06.823Z,99936.97
2023-04-21T18:51:38.308Z,99934.28
2023-04-21T18:54:08.014Z,99928.94
2023-04-21T18:56:37.570Z,99903.50
2023-04-21T18:59:09.784Z,99920.09
2023-04-21T19:01:40.650Z,99906.88
2023-04-21T19:04:11.361Z,99917.00
2023-04-21T19:06:43.632Z,99918.97
2023-04-21T19:09:12.862Z,99901.38
2023-04-21T19:11:42.100Z,99896.88
2023-04-21T19:14:14.203Z,99910.09
2023-04-21T19:16:43.271Z,99910.09
2023-04-21T19:19:14.570Z,99894.50
2023-04-21T19:21:43.617Z,99882.09
2023-04-21T19:24:12.841Z,99884.91
2023-04-21T19:26:42.074Z,99885.44
2023-04-21T19:29:15.017Z,99875.13
2023-04-21T19:31:43.937Z,99873.81
2023-04-21T19:34:13.732Z,99854.44
2023-04-21T19:36:43.706Z,99881.16
2023-04-21T19:39:13.599Z,99859.25
2023-04-21T19:41:43.108Z,99877.97
2023-04-21T19:44:13.837Z,99865.63
2023-04-21T19:46:45.178Z,99872.78
2023-04-21T19:49:14.372Z,99857.00
2023-04-21T19:51:45.964Z,99868.56
2023-04-21T19:54:16.267Z,99875.03
2023-04-21T19:56:45.622Z,99869.31
2023-04-21T19:59:15.970Z,99862.97
2023-04-21T20:01:45.049Z,99865.91
2023-04-21T20:04:14.537Z,99866.06
2023-04-21T20:06:47.173Z,99852.44
2023-04-21T20:09:16.252Z,99887.88
2023-04-21T20:11:45.530Z,99874.44
2023-04-21T20:14:16.966Z,99884.28
2023-04-21T20:16:46.536Z,99869.50
2023-04-21T20:19:23.194Z,99871.09
2023-04-21T20:21:52.343Z,99887.44
2023-04-21T20:24:21.418Z,99881.50
2023-04-21T20:26:50.894Z,99882.78
2023-04-21T20:29:21.562Z,99875.31
2023-04-21T20:31:50.843Z,99879.38
2023-04-21T20:34:20.079Z,99841.38
2023-04-21T20:36:49.012Z,99839.75
2023-04-21T20:39:18.544Z,99864.66
2023-04-21T20:41:53.054Z,99842.75
2023-04-21T20:44:31.683Z,99858.53
2023-04-21T20:47:01.663Z,99863.63
2023-04-21T20:49:30.774Z,99864.69
2023-04-21T20:52:01.485Z,99842.81
2023-04-21T20:54:30.670Z,99867.53
2023-04-21T20:56:59.729Z,99867.25
2023-04-21T20:59:28.633Z,99866.44
2023-04-21T21:01:58.932Z,99861.09
2023-04-21T21:04:30.697Z,99859.72
2023-04-21T21:07:06.091Z,99862.50
2023-04-21T21:09:35.215Z,99848.97
2023-04-21T21:12:04.268Z,99848.69
2023-04-21T21:14:33.326Z,99829.50
2023-04-21T21:17:04.041Z,99842.09
2023-04-21T21:19:34.882Z,99861.03
2023-04-21T21:22:04.301Z,99851.50
2023-04-21T21:24:33.087Z,99854.47
2023-04-21T21:27:02.441Z,99852.91
2023-04-21T21:29:31.451Z,99854.91
2023-04-21T21:32:00.571Z,99849.94
2023-04-21T21:34:31.046Z,99869.03
2023-04-21T21:37:00.542Z,99821.19
2023-04-21T21:39:30.025Z,99856.94
2023-04-21T21:41:58.973Z,99871.06
2023-04-21T21:44:27.851Z,99840.84
2023-04-21T21:46:57.080Z,99860.19
2023-04-21T21:49:26.056Z,99858.19
2023-04-21T21:51:59.501Z,99842.13
2023-04-21T21:54:31.581Z,99856.44
2023-04-21T21:57:01.383Z,99849.16
2023-04-21T21:59:30.398Z,99873.38
2023-04-21T22:01:59.737Z,99837.91
2023-04-21T22:04:28.908Z,99855.50
2023-04-21T22:06:59.524Z,99864.81
2023-04-21T22:09:30.372Z,99874.31
2023-04-21T22:11:59.450Z,99863.88
2023-04-21T22:14:28.747Z,99858.75
2023-04-21T22:16:59.124Z,99868.44
2023-04-21T22:19:29.383Z,99861.41
2023-04-21T22:22:00.201Z,99866.75
2023-04-21T22:24:29.395Z,99866.53
2023-04-21T22:26:58.518Z,99848.66
2023-04-21T22:29:27.486Z,99846.09
2023-04-21T22:31:56.414Z,99842.81
2023-04-21T22:34:27.527Z,99857.91
2023-04-21T22:36:57.668Z,99853.16
2023-04-21T22:39:31.385Z,99851.97
2023-04-21T22:42:01.085Z,99848.84
2023-04-21T22:44:31.089Z,99842.22
2023-04-21T22:47:00.798Z,99848.13
2023-04-21T22:49:29.804Z,99837.03
2023-04-21T22:51:59.274Z,99848.66
2023-04-21T22:54:29.860Z,99849.00
2023-04-21T22:56:58.733Z,99818.97
2023-04-21T22:59:27.929Z,99829.50
2023-04-21T23:01:57.159Z,99830.47
2023-04-21T23:04:26.547Z,99829.84
2023-04-21T23:06:56.195Z,99835.94
2023-04-21T23:09:25.128Z,99822.63
2023-04-21T23:11:55.713Z,99840.66
2023-04-21T23:14:24.857Z,99839.00
2023-04-21T23:16:53.965Z,99847.59
2023-04-21T23:19:23.390Z,99833.25
2023-04-21T23:21:52.346Z,99844.75
2023-04-21T23:24:23.466Z,99839.00
2023-04-21T23:26:53.773Z,99836.38
2023-04-21T23:29:24.697Z,99833.03
2023-04-21T23:31:56.688Z,99833.25
2023-04-21T23:34:26.203Z,99842.94
2023-04-21T23:36:55.245Z,99834.50
2023-04-21T23:39:24.314Z,99804.75
2023-04-21T23:41:53.535Z,99847.31
2023-04-21T23:44:24.539Z,99836.31
2023-04-21T23:46:53.386Z,99842.13
2023-04-21T23:49:23.226Z,99821.22
2023-04-21T23:51:52.177Z,99835.81
2023-04-21T23:54:23.611Z,99827.88
2023-04-21T23:56:59.664Z,99810.31
2023-04-21T23:59:30.185Z,99837.03
